createdAt,value
2022-09-20T00:01:42.171Z,10.67
2022-09-20T00:06:43.819Z,10.70
2022-09-20T00:11:45.444Z,10.59
2022-09-20T00:16:47.059Z,10.36
2022-09-20T00:21:48.728Z,10.38
2022-09-20T00:26:50.332Z,10.20
2022-09-20T00:31:51.974Z,10.24
2022-09-20T00:36:53.716Z,10.20
2022-09-20T00:41:55.418Z,10.36
2022-09-20T00:46:57.596Z,10.05
2022-09-20T00:52:02.390Z,9.98
2022-09-20T00:57:04.514Z,10.18
2022-09-20T01:02:17.618Z,10.28
2022-09-20T01:07:22.507Z,10.19
2022-09-20T01:12:29.365Z,10.21
2022-09-20T01:17:34.842Z,10.29
2022-09-20T01:23:04.182Z,10.22
2022-09-20T01:28:06.098Z,10.36
2022-09-20T01:33:11.235Z,10.14
2022-09-20T01:38:23.444Z,10.08
2022-09-20T01:43:40.280Z,10.05
2022-09-20T01:48:42.457Z,10.09
2022-09-20T01:54:08.462Z,9.99
2022-09-20T01:59:47.285Z,10.06
2022-09-20T02:05:26.639Z,10.02
2022-09-20T02:11:05.214Z,10.00
2022-09-20T02:16:40.728Z,10.00
2022-09-20T02:22:06.674Z,9.93
2022-09-20T02:27:23.341Z,10.03
2022-09-20T02:32:52.705Z,9.96
2022-09-20T02:38:15.876Z,10.00
2022-09-20T02:43:26.410Z,9.97
2022-09-20T02:48:39.008Z,9.99
2022-09-20T02:54:00.858Z,9.97
2022-09-20T02:59:38.850Z,9.91
2022-09-20T03:05:07.298Z,9.98
2022-09-20T03:10:27.604Z,10.00
2022-09-20T03:15:34.980Z,10.04
2022-09-20T03:21:04.993Z,10.00
2022-09-20T03:26:32.099Z,9.97
2022-09-20T03:31:50.816Z,10.00
2022-09-20T03:37:24.896Z,10.01
2022-09-20T03:42:29.783Z,10.02
2022-09-20T03:47:44.460Z,9.88
2022-09-20T03:52:57.895Z,9.92
2022-09-20T03:58:08.755Z,9.90
2022-09-20T04:03:46.031Z,10.00
2022-09-20T04:09:14.742Z,10.08
2022-09-20T04:14:34.695Z,10.12
2022-09-20T04:19:52.196Z,10.15
2022-09-20T04:25:12.930Z,10.22
2022-09-20T04:30:14.715Z,10.07
2022-09-20T04:35:53.270Z,10.21
2022-09-20T04:41:16.596Z,10.21
2022-09-20T04:46:18.422Z,10.15
2022-09-20T04:51:44.447Z,9.97
2022-09-20T04:57:10.220Z,10.15
2022-09-20T05:02:41.993Z,10.08
2022-09-20T05:07:46.354Z,10.10
2022-09-20T05:13:09.175Z,10.13
2022-09-20T05:18:31.284Z,10.06
2022-09-20T05:23:35.669Z,10.24
2022-09-20T05:29:24.678Z,10.08
2022-09-20T05:35:00.695Z,9.99
2022-09-20T05:40:32.808Z,10.06
2022-09-20T05:46:02.550Z,10.21
2022-09-20T05:51:16.346Z,10.21
2022-09-20T05:56:26.980Z,10.24
2022-09-20T06:01:39.479Z,10.06
2022-09-20T06:07:21.469Z,10.48
2022-09-20T06:12:35.838Z,10.78
2022-09-20T06:17:44.026Z,10.51
2022-09-20T06:22:51.020Z,10.61
2022-09-20T06:28:01.352Z,10.63
2022-09-20T06:33:06.008Z,10.67
2022-09-20T06:38:35.065Z,11.10
2022-09-20T06:43:39.908Z,10.83
2022-09-20T06:48:41.847Z,11.15
2022-09-20T06:53:43.526Z,10.90
2022-09-20T06:58:45.261Z,11.25
2022-09-20T07:03:47.324Z,11.29
2022-09-20T07:08:49.101Z,11.32
2022-09-20T07:13:52.212Z,11.48
2022-09-20T07:18:53.899Z,10.97
2022-09-20T07:23:55.659Z,10.89
2022-09-20T07:28:58.698Z,11.13
2022-09-20T07:34:00.550Z,11.28
2022-09-20T07:39:02.192Z,11.15
2022-09-20T07:44:21.567Z,11.23
2022-09-20T07:49:23.816Z,11.39
2022-09-20T07:54:27.199Z,11.39
2022-09-20T07:59:29.032Z,11.27
2022-09-20T08:04:30.644Z,11.28
2022-09-20T08:09:32.279Z,11.11
2022-09-20T08:14:33.873Z,11.31
2022-09-20T08:19:35.597Z,11.04
2022-09-20T08:24:37.209Z,11.24
2022-09-20T08:29:38.966Z,11.37
2022-09-20T08:34:40.740Z,11.45
2022-09-20T08:39:58.425Z,11.11
2022-09-20T08:45:05.668Z,11.35
2022-09-20T08:50:09.958Z,12.03
2022-09-20T08:55:21.890Z,11.82
2022-09-20T09:00:31.986Z,11.68
2022-09-20T09:05:36.068Z,11.87
2022-09-20T09:10:43.055Z,12.26
2022-09-20T09:15:49.243Z,12.65
2022-09-20T09:20:51.307Z,12.47
2022-09-20T09:25:55.055Z,11.59
2022-09-20T09:31:22.351Z,11.48
2022-09-20T09:36:25.968Z,11.13
2022-09-20T09:41:33.372Z,11.12
2022-09-20T09:46:36.643Z,11.54
2022-09-20T09:51:38.839Z,11.78
2022-09-20T09:57:15.872Z,12.61
2022-09-20T10:02:32.002Z,13.18
2022-09-20T10:07:49.901Z,14.11
2022-09-20T10:13:20.064Z,14.39
2022-09-20T10:18:44.528Z,17.11
2022-09-20T10:24:05.135Z,15.37
2022-09-20T10:29:42.401Z,14.36
2022-09-20T10:35:25.171Z,14.15
2022-09-20T10:40:49.672Z,16.20
2022-09-20T10:51:30.087Z,14.83
2022-09-20T10:56:40.806Z,15.02
2022-09-20T11:02:01.459Z,15.98
2022-09-20T11:07:24.626Z,18.75
2022-09-20T11:12:42.628Z,18.89
2022-09-20T11:18:02.051Z,16.78
2022-09-20T11:23:12.066Z,16.51
2022-09-20T11:28:25.683Z,15.17
2022-09-20T11:33:41.290Z,13.96
2022-09-20T11:38:57.699Z,14.15
2022-09-20T11:44:10.043Z,14.71
2022-09-20T11:49:21.214Z,15.33
2022-09-20T11:54:57.243Z,18.33
2022-09-20T12:00:05.047Z,19.13
2022-09-20T12:05:29.488Z,19.13
2022-09-20T12:10:35.493Z,20.38
2022-09-20T12:15:40.039Z,20.99
2022-09-20T12:20:42.597Z,17.00
2022-09-20T12:26:01.407Z,15.55
2022-09-20T12:31:39.210Z,14.23
2022-09-20T12:36:55.966Z,13.93
2022-09-20T12:42:00.460Z,12.59
2022-09-20T12:47:06.462Z,13.14
2022-09-20T12:52:54.036Z,13.88
2022-09-20T12:58:03.135Z,17.71
2022-09-20T13:03:23.926Z,20.57
2022-09-20T13:08:29.144Z,20.95
2022-09-20T13:13:44.206Z,20.74
2022-09-20T13:18:47.608Z,20.18
2022-09-20T13:23:52.434Z,18.78
2022-09-20T13:28:57.116Z,15.10
2022-09-20T13:34:13.458Z,14.73
2022-09-20T13:39:31.647Z,14.87
2022-09-20T13:44:34.912Z,17.49
2022-09-20T13:49:43.146Z,19.97
2022-09-20T13:54:44.736Z,20.58
2022-09-20T13:59:46.706Z,19.75
2022-09-20T14:04:50.677Z,18.09
2022-09-20T14:09:52.748Z,18.17
2022-09-20T14:14:55.262Z,17.28
2022-09-20T14:19:57.659Z,14.85
2022-09-20T14:25:19.355Z,13.60
2022-09-20T14:30:35.207Z,12.68
2022-09-20T14:35:36.849Z,12.26
2022-09-20T14:40:44.528Z,11.65
2022-09-20T14:45:53.566Z,11.23
2022-09-20T14:51:18.077Z,11.01
2022-09-20T14:56:32.725Z,10.79
2022-09-20T15:01:37.780Z,10.61
2022-09-20T15:06:40.132Z,10.31
2022-09-20T15:11:41.943Z,10.41
2022-09-20T15:16:43.597Z,10.47
2022-09-20T15:21:45.276Z,10.35
2022-09-20T15:26:46.915Z,10.03
2022-09-20T15:31:49.055Z,10.15
2022-09-20T15:36:50.853Z,9.97
2022-09-20T15:41:53.392Z,10.17
2022-09-20T15:46:55.132Z,10.11
2022-09-20T15:51:57.286Z,10.08
2022-09-20T15:56:58.941Z,10.48
2022-09-20T16:02:00.979Z,10.38
2022-09-20T16:07:03.765Z,10.47
2022-09-20T16:12:05.579Z,10.20
2022-09-20T16:17:07.337Z,10.13
2022-09-20T16:22:08.999Z,10.13
2022-09-20T16:27:10.666Z,10.05
2022-09-20T16:32:12.319Z,10.00
2022-09-20T16:37:17.160Z,9.75
2022-09-20T16:42:18.829Z,9.70
2022-09-20T16:47:23.182Z,9.59
2022-09-20T16:52:26.527Z,9.51
2022-09-20T16:57:28.916Z,9.54
2022-09-20T17:02:30.500Z,9.76
2022-09-20T17:07:32.142Z,9.55
2022-09-20T17:12:34.543Z,9.49
2022-09-20T17:17:36.280Z,9.33
2022-09-20T17:22:37.910Z,9.62
2022-09-20T17:27:39.838Z,9.37
2022-09-20T17:32:48.187Z,9.23
2022-09-20T17:37:49.889Z,9.37
2022-09-20T17:42:51.830Z,9.23
2022-09-20T17:47:57.159Z,9.17
2022-09-20T17:52:58.748Z,9.49
2022-09-20T17:58:00.422Z,9.65
2022-09-20T18:03:04.887Z,9.60
2022-09-20T18:08:06.961Z,9.81
2022-09-20T18:13:08.555Z,9.94
2022-09-20T18:18:10.950Z,9.85
2022-09-20T18:23:12.616Z,9.53
2022-09-20T18:28:14.208Z,9.64
2022-09-20T18:33:16.744Z,9.63
2022-09-20T18:38:19.053Z,9.79
2022-09-20T18:43:20.638Z,9.86
2022-09-20T18:48:25.123Z,9.77
2022-09-20T18:53:37.911Z,9.49
2022-09-20T18:58:40.079Z,9.83
2022-09-20T19:03:50.723Z,9.49
2022-09-20T19:09:03.268Z,9.67
2022-09-20T19:14:25.432Z,9.63
2022-09-20T19:19:57.055Z,9.53
2022-09-20T19:25:20.546Z,9.55
2022-09-20T19:30:22.660Z,9.35
2022-09-20T19:35:28.852Z,9.36
2022-09-20T19:40:54.623Z,9.30
2022-09-20T19:46:11.700Z,9.37
2022-09-20T19:51:14.113Z,9.37
2022-09-20T19:56:25.801Z,9.33
2022-09-20T20:01:27.827Z,9.27
2022-09-20T20:06:38.364Z,9.26
2022-09-20T20:12:25.861Z,9.63
2022-09-20T20:17:46.459Z,9.67
2022-09-20T20:22:51.267Z,9.56
2022-09-20T20:27:53.094Z,9.48
2022-09-20T20:32:58.207Z,9.56
2022-09-20T20:37:59.828Z,9.60
2022-09-20T20:43:02.286Z,9.45
2022-09-20T20:48:04.353Z,9.54
2022-09-20T20:53:06.724Z,9.33
2022-09-20T20:58:10.164Z,9.34
2022-09-20T21:03:11.812Z,9.45
2022-09-20T21:08:13.411Z,9.60
2022-09-20T21:13:15.029Z,9.41
2022-09-20T21:18:16.610Z,9.59
2022-09-20T21:23:18.202Z,9.52
2022-09-20T21:28:20.387Z,9.72
2022-09-20T21:33:23.004Z,9.58
2022-09-20T21:38:24.659Z,9.69
2022-09-20T21:43:26.741Z,9.65
2022-09-20T21:48:29.165Z,9.86
2022-09-20T21:53:31.631Z,9.85
2022-09-20T21:58:38.135Z,9.89
2022-09-20T22:03:49.562Z,9.86
2022-09-20T22:09:02.061Z,10.00
2022-09-20T22:14:03.651Z,10.00
2022-09-20T22:19:07.963Z,9.81
2022-09-20T22:24:11.336Z,9.90
2022-09-20T22:29:13.479Z,9.85
2022-09-20T22:34:17.683Z,9.79
2022-09-20T22:39:19.364Z,9.90
2022-09-20T22:44:21.008Z,9.77
2022-09-20T22:49:22.617Z,9.70
2022-09-20T22:54:24.225Z,9.62
2022-09-20T22:59:25.799Z,9.51
2022-09-20T23:04:27.503Z,9.47
2022-09-20T23:09:29.109Z,9.56
2022-09-20T23:14:30.720Z,9.50
2022-09-20T23:19:32.360Z,9.58
2022-09-20T23:24:33.989Z,9.64
2022-09-20T23:29:36.748Z,9.89
2022-09-20T23:34:38.368Z,9.93
2022-09-20T23:39:40.648Z,9.93
2022-09-20T23:44:42.245Z,9.93
2022-09-20T23:49:43.896Z,9.99
2022-09-20T23:54:45.478Z,9.96
2022-09-20T23:59:47.124Z,10.09
